sensor_id;sensor_type;location;lat;lon;timestamp;P1;durP1;ratioP1;P2;durP2;ratioP2
9904;SDS011;4991;43.566;27.820;2023-08-20T00:01:13;17.97;;;13.03;;
9904;SDS011;4991;43.566;27.820;2023-08-20T00:03:43;17.50;;;12.10;;
9904;SDS011;4991;43.566;27.820;2023-08-20T00:06:11;14.87;;;11.77;;
9904;SDS011;4991;43.566;27.820;2023-08-20T00:08:37;15.27;;;12.30;;
9904;SDS011;4991;43.566;27.820;2023-08-20T00:11:02;16.17;;;11.30;;
9904;SDS011;4991;43.566;27.820;2023-08-20T00:13:30;12.40;;;10.43;;
9904;SDS011;4991;43.566;27.820;2023-08-20T00:15:56;12.90;;;11.23;;
9904;SDS011;4991;43.566;27.820;2023-08-20T00:18:22;11.97;;;10.67;;
9904;SDS011;4991;43.566;27.820;2023-08-20T00:20:48;12.93;;;11.40;;
9904;SDS011;4991;43.566;27.820;2023-08-20T00:23:14;15.97;;;11.83;;
9904;SDS011;4991;43.566;27.820;2023-08-20T00:25:40;15.37;;;10.73;;
9904;SDS011;4991;43.566;27.820;2023-08-20T00:28:06;12.50;;;10.73;;
9904;SDS011;4991;43.566;27.820;2023-08-20T00:30:31;13.50;;;9.87;;
9904;SDS011;4991;43.566;27.820;2023-08-20T00:32:57;13.40;;;10.27;;
9904;SDS011;4991;43.566;27.820;2023-08-20T00:35:23;13.00;;;10.87;;
9904;SDS011;4991;43.566;27.820;2023-08-20T00:37:48;12.17;;;11.00;;
9904;SDS011;4991;43.566;27.820;2023-08-20T00:40:14;11.03;;;9.93;;
9904;SDS011;4991;43.566;27.820;2023-08-20T00:42:41;14.00;;;11.00;;
9904;SDS011;4991;43.566;27.820;2023-08-20T00:45:06;11.03;;;9.97;;
9904;SDS011;4991;43.566;27.820;2023-08-20T00:47:33;13.07;;;11.10;;
9904;SDS011;4991;43.566;27.820;2023-08-20T00:50:00;14.47;;;11.33;;
9904;SDS011;4991;43.566;27.820;2023-08-20T00:52:26;16.03;;;11.53;;
9904;SDS011;4991;43.566;27.820;2023-08-20T00:54:53;12.93;;;11.53;;
9904;SDS011;4991;43.566;27.820;2023-08-20T00:57:19;11.23;;;10.23;;
9904;SDS011;4991;43.566;27.820;2023-08-20T00:59:47;11.80;;;10.70;;
9904;SDS011;4991;43.566;27.820;2023-08-20T01:02:15;11.20;;;10.03;;
9904;SDS011;4991;43.566;27.820;2023-08-20T01:04:42;14.70;;;11.37;;
9904;SDS011;4991;43.566;27.820;2023-08-20T01:12:17;14.87;;;10.57;;
9904;SDS011;4991;43.566;27.820;2023-08-20T01:14:44;10.70;;;9.60;;
9904;SDS011;4991;43.566;27.820;2023-08-20T01:17:10;12.57;;;10.07;;
9904;SDS011;4991;43.566;27.820;2023-08-20T01:19:35;11.27;;;10.07;;
9904;SDS011;4991;43.566;27.820;2023-08-20T01:25:15;12.03;;;9.80;;
9904;SDS011;4991;43.566;27.820;2023-08-20T01:30:49;12.53;;;10.47;;
9904;SDS011;4991;43.566;27.820;2023-08-20T01:33:15;10.93;;;9.83;;
9904;SDS011;4991;43.566;27.820;2023-08-20T01:35:41;10.70;;;9.70;;
9904;SDS011;4991;43.566;27.820;2023-08-20T01:38:07;11.43;;;10.40;;
9904;SDS011;4991;43.566;27.820;2023-08-20T01:40:33;12.90;;;10.60;;
9904;SDS011;4991;43.566;27.820;2023-08-20T01:42:59;10.77;;;9.77;;
9904;SDS011;4991;43.566;27.820;2023-08-20T01:45:24;11.67;;;10.13;;
9904;SDS011;4991;43.566;27.820;2023-08-20T01:47:51;11.13;;;9.90;;
9904;SDS011;4991;43.566;27.820;2023-08-20T01:50:16;11.53;;;10.33;;
9904;SDS011;4991;43.566;27.820;2023-08-20T01:52:42;12.10;;;10.37;;
9904;SDS011;4991;43.566;27.820;2023-08-20T01:55:08;13.77;;;10.00;;
9904;SDS011;4991;43.566;27.820;2023-08-20T01:57:33;11.40;;;10.27;;
9904;SDS011;4991;43.566;27.820;2023-08-20T01:59:59;10.73;;;9.70;;
9904;SDS011;4991;43.566;27.820;2023-08-20T02:02:25;11.57;;;10.00;;
9904;SDS011;4991;43.566;27.820;2023-08-20T02:04:50;12.47;;;10.40;;
9904;SDS011;4991;43.566;27.820;2023-08-20T02:07:16;11.47;;;10.37;;
9904;SDS011;4991;43.566;27.820;2023-08-20T02:09:42;10.93;;;9.80;;
9904;SDS011;4991;43.566;27.820;2023-08-20T02:12:08;10.97;;;9.87;;
9904;SDS011;4991;43.566;27.820;2023-08-20T02:14:34;14.20;;;10.57;;
9904;SDS011;4991;43.566;27.820;2023-08-20T02:17:03;11.50;;;10.30;;
9904;SDS011;4991;43.566;27.820;2023-08-20T02:19:29;13.00;;;10.47;;
9904;SDS011;4991;43.566;27.820;2023-08-20T02:21:55;13.97;;;11.33;;
9904;SDS011;4991;43.566;27.820;2023-08-20T02:24:21;12.30;;;9.83;;
9904;SDS011;4991;43.566;27.820;2023-08-20T02:26:46;12.47;;;10.80;;
9904;SDS011;4991;43.566;27.820;2023-08-20T02:29:12;15.17;;;11.20;;
9904;SDS011;4991;43.566;27.820;2023-08-20T02:31:37;11.97;;;10.77;;
9904;SDS011;4991;43.566;27.820;2023-08-20T02:34:03;12.90;;;10.20;;
9904;SDS011;4991;43.566;27.820;2023-08-20T02:36:29;13.47;;;10.30;;
9904;SDS011;4991;43.566;27.820;2023-08-20T02:38:54;11.47;;;9.83;;
9904;SDS011;4991;43.566;27.820;2023-08-20T02:41:21;13.27;;;10.37;;
9904;SDS011;4991;43.566;27.820;2023-08-20T02:43:47;11.53;;;9.93;;
9904;SDS011;4991;43.566;27.820;2023-08-20T02:46:13;12.83;;;10.53;;
9904;SDS011;4991;43.566;27.820;2023-08-20T02:48:39;15.30;;;9.57;;
9904;SDS011;4991;43.566;27.820;2023-08-20T02:51:04;12.60;;;9.80;;
9904;SDS011;4991;43.566;27.820;2023-08-20T02:53:30;11.00;;;9.90;;
9904;SDS011;4991;43.566;27.820;2023-08-20T02:55:55;10.53;;;9.53;;
9904;SDS011;4991;43.566;27.820;2023-08-20T02:58:24;11.10;;;9.87;;
9904;SDS011;4991;43.566;27.820;2023-08-20T03:00:50;14.13;;;10.63;;
9904;SDS011;4991;43.566;27.820;2023-08-20T03:03:16;11.30;;;10.10;;
9904;SDS011;4991;43.566;27.820;2023-08-20T03:05:42;11.17;;;10.07;;
9904;SDS011;4991;43.566;27.820;2023-08-20T03:08:08;11.73;;;9.67;;
9904;SDS011;4991;43.566;27.820;2023-08-20T03:10:34;12.77;;;10.77;;
9904;SDS011;4991;43.566;27.820;2023-08-20T03:13:00;11.67;;;9.93;;
9904;SDS011;4991;43.566;27.820;2023-08-20T03:15:27;13.60;;;10.10;;
9904;SDS011;4991;43.566;27.820;2023-08-20T03:17:53;10.77;;;9.57;;
9904;SDS011;4991;43.566;27.820;2023-08-20T03:20:19;13.80;;;9.67;;
9904;SDS011;4991;43.566;27.820;2023-08-20T03:22:44;10.67;;;9.57;;
9904;SDS011;4991;43.566;27.820;2023-08-20T03:25:10;10.53;;;9.40;;
9904;SDS011;4991;43.566;27.820;2023-08-20T03:27:35;9.77;;;8.80;;
9904;SDS011;4991;43.566;27.820;2023-08-20T03:30:01;11.03;;;9.23;;
9904;SDS011;4991;43.566;27.820;2023-08-20T03:32:28;10.90;;;8.90;;
9904;SDS011;4991;43.566;27.820;2023-08-20T03:34:54;10.53;;;9.30;;
9904;SDS011;4991;43.566;27.820;2023-08-20T03:37:21;12.80;;;10.00;;
9904;SDS011;4991;43.566;27.820;2023-08-20T03:39:47;9.73;;;8.83;;
9904;SDS011;4991;43.566;27.820;2023-08-20T03:42:13;11.30;;;8.70;;
9904;SDS011;4991;43.566;27.820;2023-08-20T03:44:39;10.00;;;8.97;;
9904;SDS011;4991;43.566;27.820;2023-08-20T03:47:04;10.33;;;9.27;;
9904;SDS011;4991;43.566;27.820;2023-08-20T03:49:30;11.40;;;8.83;;
9904;SDS011;4991;43.566;27.820;2023-08-20T03:51:56;12.33;;;8.53;;
9904;SDS011;4991;43.566;27.820;2023-08-20T03:54:22;9.63;;;8.67;;
9904;SDS011;4991;43.566;27.820;2023-08-20T03:56:47;12.97;;;9.00;;
9904;SDS011;4991;43.566;27.820;2023-08-20T03:59:13;11.30;;;9.50;;
9904;SDS011;4991;43.566;27.820;2023-08-20T04:01:38;10.53;;;9.20;;
9904;SDS011;4991;43.566;27.820;2023-08-20T04:04:04;10.47;;;9.33;;
9904;SDS011;4991;43.566;27.820;2023-08-20T04:06:30;13.10;;;9.93;;
9904;SDS011;4991;43.566;27.820;2023-08-20T04:08:56;10.43;;;9.13;;
9904;SDS011;4991;43.566;27.820;2023-08-20T04:11:21;11.10;;;10.00;;
9904;SDS011;4991;43.566;27.820;2023-08-20T04:13:47;13.77;;;9.20;;
9904;SDS011;4991;43.566;27.820;2023-08-20T04:16:13;13.50;;;9.67;;
9904;SDS011;4991;43.566;27.820;2023-08-20T04:18:39;11.40;;;9.73;;
9904;SDS011;4991;43.566;27.820;2023-08-20T04:21:05;14.50;;;9.80;;
9904;SDS011;4991;43.566;27.820;2023-08-20T04:23:32;10.80;;;9.57;;
9904;SDS011;4991;43.566;27.820;2023-08-20T04:25:57;12.83;;;9.57;;
9904;SDS011;4991;43.566;27.820;2023-08-20T04:28:23;11.33;;;9.60;;
9904;SDS011;4991;43.566;27.820;2023-08-20T04:30:52;12.43;;;9.60;;
9904;SDS011;4991;43.566;27.820;2023-08-20T04:33:19;14.03;;;9.47;;
9904;SDS011;4991;43.566;27.820;2023-08-20T04:35:45;11.17;;;9.67;;
9904;SDS011;4991;43.566;27.820;2023-08-20T04:38:12;9.13;;;8.27;;
9904;SDS011;4991;43.566;27.820;2023-08-20T04:40:37;12.67;;;9.60;;
9904;SDS011;4991;43.566;27.820;2023-08-20T04:43:03;11.00;;;9.10;;
9904;SDS011;4991;43.566;27.820;2023-08-20T04:45:28;10.70;;;9.60;;
9904;SDS011;4991;43.566;27.820;2023-08-20T04:47:54;9.90;;;8.90;;
9904;SDS011;4991;43.566;27.820;2023-08-20T04:50:20;10.53;;;9.33;;
9904;SDS011;4991;43.566;27.820;2023-08-20T04:52:45;11.50;;;9.10;;
9904;SDS011;4991;43.566;27.820;2023-08-20T04:55:11;12.87;;;8.87;;
9904;SDS011;4991;43.566;27.820;2023-08-20T04:57:36;10.90;;;8.83;;
9904;SDS011;4991;43.566;27.820;2023-08-20T05:00:02;12.73;;;9.47;;
9904;SDS011;4991;43.566;27.820;2023-08-20T05:02:28;14.47;;;9.67;;
9904;SDS011;4991;43.566;27.820;2023-08-20T05:04:54;10.27;;;8.80;;
9904;SDS011;4991;43.566;27.820;2023-08-20T05:07:20;11.87;;;9.23;;
9904;SDS011;4991;43.566;27.820;2023-08-20T05:09:45;9.90;;;8.93;;
9904;SDS011;4991;43.566;27.820;2023-08-20T05:12:11;12.77;;;9.47;;
9904;SDS011;4991;43.566;27.820;2023-08-20T05:14:37;12.37;;;10.03;;
9904;SDS011;4991;43.566;27.820;2023-08-20T05:17:02;12.90;;;11.43;;
9904;SDS011;4991;43.566;27.820;2023-08-20T05:19:28;16.67;;;9.90;;
9904;SDS011;4991;43.566;27.820;2023-08-20T05:21:53;12.77;;;10.00;;
9904;SDS011;4991;43.566;27.820;2023-08-20T05:24:24;14.00;;;10.43;;
9904;SDS011;4991;43.566;27.820;2023-08-20T05:29:32;14.93;;;10.70;;
9904;SDS011;4991;43.566;27.820;2023-08-20T05:31:57;15.27;;;9.83;;
9904;SDS011;4991;43.566;27.820;2023-08-20T05:34:23;13.07;;;9.83;;
9904;SDS011;4991;43.566;27.820;2023-08-20T05:36:49;11.20;;;10.03;;
9904;SDS011;4991;43.566;27.820;2023-08-20T05:39:14;21.03;;;14.83;;
9904;SDS011;4991;43.566;27.820;2023-08-20T05:41:40;12.75;;;9.63;;
9904;SDS011;4991;43.566;27.820;2023-08-20T05:44:06;10.27;;;8.97;;
9904;SDS011;4991;43.566;27.820;2023-08-20T05:46:31;11.77;;;8.55;;
9904;SDS011;4991;43.566;27.820;2023-08-20T05:48:57;12.15;;;8.90;;
9904;SDS011;4991;43.566;27.820;2023-08-20T05:51:22;10.40;;;8.17;;
9904;SDS011;4991;43.566;27.820;2023-08-20T05:53:48;14.15;;;8.25;;
9904;SDS011;4991;43.566;27.820;2023-08-20T05:56:14;10.07;;;8.13;;
9904;SDS011;4991;43.566;27.820;2023-08-20T05:58:39;10.35;;;8.40;;
9904;SDS011;4991;43.566;27.820;2023-08-20T06:01:05;10.73;;;8.27;;
9904;SDS011;4991;43.566;27.820;2023-08-20T06:03:30;9.88;;;7.63;;
9904;SDS011;4991;43.566;27.820;2023-08-20T06:05:57;10.25;;;7.85;;
9904;SDS011;4991;43.566;27.820;2023-08-20T06:08:23;10.57;;;8.10;;
9904;SDS011;4991;43.566;27.820;2023-08-20T06:10:49;11.10;;;8.07;;
9904;SDS011;4991;43.566;27.820;2023-08-20T06:13:15;8.88;;;7.78;;
9904;SDS011;4991;43.566;27.820;2023-08-20T06:15:41;9.88;;;7.30;;
9904;SDS011;4991;43.566;27.820;2023-08-20T06:18:06;9.45;;;7.60;;
9904;SDS011;4991;43.566;27.820;2023-08-20T06:20:32;10.43;;;7.40;;
9904;SDS011;4991;43.566;27.820;2023-08-20T06:22:58;10.70;;;7.60;;
9904;SDS011;4991;43.566;27.820;2023-08-20T06:25:23;8.85;;;7.95;;
9904;SDS011;4991;43.566;27.820;2023-08-20T06:27:49;7.82;;;7.10;;
9904;SDS011;4991;43.566;27.820;2023-08-20T06:30:15;10.27;;;7.68;;
9904;SDS011;4991;43.566;27.820;2023-08-20T06:32:41;9.77;;;7.45;;
9904;SDS011;4991;43.566;27.820;2023-08-20T06:35:09;8.07;;;7.20;;
9904;SDS011;4991;43.566;27.820;2023-08-20T06:37:35;7.63;;;6.82;;
9904;SDS011;4991;43.566;27.820;2023-08-20T06:40:01;7.47;;;6.78;;
9904;SDS011;4991;43.566;27.820;2023-08-20T06:42:26;12.10;;;7.13;;
9904;SDS011;4991;43.566;27.820;2023-08-20T06:44:52;7.97;;;6.90;;
9904;SDS011;4991;43.566;27.820;2023-08-20T06:47:18;7.85;;;6.75;;
9904;SDS011;4991;43.566;27.820;2023-08-20T06:49:43;9.20;;;6.88;;
9904;SDS011;4991;43.566;27.820;2023-08-20T06:52:09;8.63;;;7.00;;
9904;SDS011;4991;43.566;27.820;2023-08-20T06:54:35;11.45;;;6.72;;
9904;SDS011;4991;43.566;27.820;2023-08-20T06:57:00;7.78;;;6.30;;
9904;SDS011;4991;43.566;27.820;2023-08-20T06:59:26;8.02;;;6.50;;
9904;SDS011;4991;43.566;27.820;2023-08-20T07:01:52;7.50;;;6.57;;
9904;SDS011;4991;43.566;27.820;2023-08-20T07:04:18;7.93;;;6.55;;
9904;SDS011;4991;43.566;27.820;2023-08-20T07:06:44;7.28;;;6.50;;
9904;SDS011;4991;43.566;27.820;2023-08-20T07:09:09;7.70;;;6.90;;
9904;SDS011;4991;43.566;27.820;2023-08-20T07:11:35;6.82;;;6.22;;
9904;SDS011;4991;43.566;27.820;2023-08-20T07:14:00;7.97;;;6.88;;
9904;SDS011;4991;43.566;27.820;2023-08-20T07:16:26;6.97;;;6.30;;
9904;SDS011;4991;43.566;27.820;2023-08-20T07:18:52;7.15;;;6.45;;
9904;SDS011;4991;43.566;27.820;2023-08-20T07:21:18;7.25;;;6.55;;
9904;SDS011;4991;43.566;27.820;2023-08-20T07:23:43;8.23;;;6.65;;
9904;SDS011;4991;43.566;27.820;2023-08-20T07:26:09;7.43;;;6.40;;
9904;SDS011;4991;43.566;27.820;2023-08-20T07:28:37;11.27;;;6.78;;
9904;SDS011;4991;43.566;27.820;2023-08-20T07:31:21;7.70;;;6.88;;
9904;SDS011;4991;43.566;27.820;2023-08-20T07:33:48;6.80;;;6.10;;
9904;SDS011;4991;43.566;27.820;2023-08-20T07:36:15;7.60;;;6.57;;
9904;SDS011;4991;43.566;27.820;2023-08-20T07:38:42;7.47;;;6.50;;
9904;SDS011;4991;43.566;27.820;2023-08-20T07:41:11;8.90;;;6.47;;
9904;SDS011;4991;43.566;27.820;2023-08-20T07:43:37;8.73;;;6.28;;
9904;SDS011;4991;43.566;27.820;2023-08-20T07:46:04;6.53;;;5.93;;
9904;SDS011;4991;43.566;27.820;2023-08-20T07:48:31;9.73;;;7.13;;
9904;SDS011;4991;43.566;27.820;2023-08-20T07:50:56;7.45;;;6.57;;
9904;SDS011;4991;43.566;27.820;2023-08-20T07:53:22;10.20;;;7.03;;
9904;SDS011;4991;43.566;27.820;2023-08-20T07:55:48;6.80;;;6.18;;
9904;SDS011;4991;43.566;27.820;2023-08-20T07:58:14;9.40;;;6.50;;
9904;SDS011;4991;43.566;27.820;2023-08-20T08:00:40;8.50;;;6.70;;
9904;SDS011;4991;43.566;27.820;2023-08-20T08:03:06;10.43;;;6.82;;
9904;SDS011;4991;43.566;27.820;2023-08-20T08:05:31;7.72;;;7.00;;
9904;SDS011;4991;43.566;27.820;2023-08-20T08:07:57;8.00;;;7.22;;
9904;SDS011;4991;43.566;27.820;2023-08-20T08:10:23;9.18;;;6.93;;
9904;SDS011;4991;43.566;27.820;2023-08-20T08:12:48;7.15;;;6.47;;
9904;SDS011;4991;43.566;27.820;2023-08-20T08:15:15;9.43;;;6.93;;
9904;SDS011;4991;43.566;27.820;2023-08-20T08:17:40;7.85;;;6.45;;
9904;SDS011;4991;43.566;27.820;2023-08-20T08:20:06;10.77;;;6.50;;
9904;SDS011;4991;43.566;27.820;2023-08-20T08:22:33;11.85;;;6.65;;
9904;SDS011;4991;43.566;27.820;2023-08-20T08:24:58;11.52;;;7.13;;
9904;SDS011;4991;43.566;27.820;2023-08-20T08:27:24;8.13;;;6.75;;
9904;SDS011;4991;43.566;27.820;2023-08-20T08:29:50;8.88;;;6.72;;
9904;SDS011;4991;43.566;27.820;2023-08-20T08:32:16;11.88;;;6.20;;
9904;SDS011;4991;43.566;27.820;2023-08-20T08:34:42;7.20;;;6.00;;
9904;SDS011;4991;43.566;27.820;2023-08-20T08:37:08;7.78;;;6.40;;
9904;SDS011;4991;43.566;27.820;2023-08-20T08:39:33;10.50;;;5.63;;
9904;SDS011;4991;43.566;27.820;2023-08-20T08:42:00;9.35;;;6.00;;
9904;SDS011;4991;43.566;27.820;2023-08-20T08:44:34;5.50;;;5.00;;
9904;SDS011;4991;43.566;27.820;2023-08-20T08:47:01;8.80;;;4.82;;
9904;SDS011;4991;43.566;27.820;2023-08-20T08:49:28;5.97;;;4.78;;
9904;SDS011;4991;43.566;27.820;2023-08-20T08:51:58;10.75;;;5.18;;
9904;SDS011;4991;43.566;27.820;2023-08-20T08:54:25;5.28;;;4.72;;
9904;SDS011;4991;43.566;27.820;2023-08-20T08:56:51;8.48;;;5.65;;
9904;SDS011;4991;43.566;27.820;2023-08-20T08:59:17;8.65;;;5.40;;
9904;SDS011;4991;43.566;27.820;2023-08-20T09:01:43;9.43;;;4.90;;
9904;SDS011;4991;43.566;27.820;2023-08-20T09:04:09;6.18;;;5.15;;
9904;SDS011;4991;43.566;27.820;2023-08-20T09:06:47;7.65;;;5.07;;
9904;SDS011;4991;43.566;27.820;2023-08-20T09:09:17;8.57;;;5.20;;
9904;SDS011;4991;43.566;27.820;2023-08-20T09:11:43;5.05;;;4.40;;
9904;SDS011;4991;43.566;27.820;2023-08-20T09:14:30;8.25;;;5.00;;
9904;SDS011;4991;43.566;27.820;2023-08-20T09:19:24;13.75;;;5.63;;
9904;SDS011;4991;43.566;27.820;2023-08-20T09:21:54;8.38;;;4.72;;
9904;SDS011;4991;43.566;27.820;2023-08-20T09:27:01;10.13;;;7.90;;
9904;SDS011;4991;43.566;27.820;2023-08-20T09:29:34;7.93;;;5.32;;
9904;SDS011;4991;43.566;27.820;2023-08-20T09:32:23;6.60;;;4.03;;
9904;SDS011;4991;43.566;27.820;2023-08-20T09:34:50;4.72;;;4.05;;
9904;SDS011;4991;43.566;27.820;2023-08-20T09:37:21;5.18;;;3.72;;
9904;SDS011;4991;43.566;27.820;2023-08-20T09:39:49;4.25;;;3.42;;
9904;SDS011;4991;43.566;27.820;2023-08-20T09:42:15;8.10;;;3.65;;
9904;SDS011;4991;43.566;27.820;2023-08-20T09:44:43;4.05;;;2.33;;
9904;SDS011;4991;43.566;27.820;2023-08-20T09:47:10;9.93;;;3.33;;
9904;SDS011;4991;43.566;27.820;2023-08-20T09:52:35;5.10;;;2.60;;
9904;SDS011;4991;43.566;27.820;2023-08-20T09:55:09;2.75;;;2.50;;
9904;SDS011;4991;43.566;27.820;2023-08-20T09:57:38;4.50;;;2.42;;
9904;SDS011;4991;43.566;27.820;2023-08-20T10:00:05;3.53;;;2.78;;
9904;SDS011;4991;43.566;27.820;2023-08-20T10:02:36;5.60;;;2.35;;
9904;SDS011;4991;43.566;27.820;2023-08-20T10:05:05;3.88;;;2.97;;
9904;SDS011;4991;43.566;27.820;2023-08-20T10:07:33;3.28;;;2.97;;
9904;SDS011;4991;43.566;27.820;2023-08-20T10:10:03;4.70;;;2.50;;
9904;SDS011;4991;43.566;27.820;2023-08-20T10:12:31;3.03;;;2.22;;
9904;SDS011;4991;43.566;27.820;2023-08-20T10:14:58;3.15;;;2.80;;
9904;SDS011;4991;43.566;27.820;2023-08-20T10:17:25;4.07;;;2.63;;
9904;SDS011;4991;43.566;27.820;2023-08-20T10:19:52;3.72;;;2.75;;
9904;SDS011;4991;43.566;27.820;2023-08-20T10:22:18;6.40;;;3.00;;
9904;SDS011;4991;43.566;27.820;2023-08-20T10:24:48;4.70;;;3.20;;
9904;SDS011;4991;43.566;27.820;2023-08-20T10:27:23;5.30;;;2.88;;
9904;SDS011;4991;43.566;27.820;2023-08-20T10:29:54;7.93;;;4.03;;
9904;SDS011;4991;43.566;27.820;2023-08-20T10:32:20;5.00;;;3.55;;
9904;SDS011;4991;43.566;27.820;2023-08-20T10:35:06;6.70;;;2.67;;
9904;SDS011;4991;43.566;27.820;2023-08-20T10:37:33;3.53;;;2.80;;
9904;SDS011;4991;43.566;27.820;2023-08-20T10:39:59;3.13;;;2.63;;
9904;SDS011;4991;43.566;27.820;2023-08-20T10:42:26;3.75;;;2.28;;
9904;SDS011;4991;43.566;27.820;2023-08-20T10:47:24;4.05;;;2.50;;
9904;SDS011;4991;43.566;27.820;2023-08-20T10:49:53;6.32;;;3.33;;
9904;SDS011;4991;43.566;27.820;2023-08-20T10:52:19;3.13;;;2.47;;
9904;SDS011;4991;43.566;27.820;2023-08-20T10:54:50;6.00;;;3.30;;
9904;SDS011;4991;43.566;27.820;2023-08-20T10:57:17;4.25;;;3.60;;
9904;SDS011;4991;43.566;27.820;2023-08-20T10:59:55;4.45;;;4.03;;
9904;SDS011;4991;43.566;27.820;2023-08-20T11:02:23;8.20;;;4.97;;
9904;SDS011;4991;43.566;27.820;2023-08-20T11:04:51;3.75;;;2.90;;
9904;SDS011;4991;43.566;27.820;2023-08-20T11:07:18;3.78;;;2.88;;
9904;SDS011;4991;43.566;27.820;2023-08-20T11:09:45;5.80;;;3.15;;
9904;SDS011;4991;43.566;27.820;2023-08-20T11:12:14;4.38;;;2.85;;
9904;SDS011;4991;43.566;27.820;2023-08-20T11:14:41;4.25;;;2.90;;
9904;SDS011;4991;43.566;27.820;2023-08-20T11:17:06;3.95;;;3.15;;
9904;SDS011;4991;43.566;27.820;2023-08-20T11:19:33;7.60;;;3.05;;
9904;SDS011;4991;43.566;27.820;2023-08-20T11:21:59;5.60;;;2.92;;
9904;SDS011;4991;43.566;27.820;2023-08-20T11:24:28;3.45;;;2.95;;
9904;SDS011;4991;43.566;27.820;2023-08-20T11:26:54;6.00;;;3.42;;
9904;SDS011;4991;43.566;27.820;2023-08-20T11:29:20;5.97;;;3.55;;
9904;SDS011;4991;43.566;27.820;2023-08-20T11:31:46;4.10;;;2.90;;
9904;SDS011;4991;43.566;27.820;2023-08-20T11:34:13;6.93;;;2.97;;
9904;SDS011;4991;43.566;27.820;2023-08-20T11:36:39;7.03;;;2.90;;
9904;SDS011;4991;43.566;27.820;2023-08-20T11:39:05;7.47;;;3.60;;
9904;SDS011;4991;43.566;27.820;2023-08-20T11:41:35;3.35;;;2.85;;
9904;SDS011;4991;43.566;27.820;2023-08-20T11:44:01;4.32;;;2.80;;
9904;SDS011;4991;43.566;27.820;2023-08-20T11:46:28;7.68;;;3.28;;
9904;SDS011;4991;43.566;27.820;2023-08-20T11:49:04;5.07;;;3.65;;
9904;SDS011;4991;43.566;27.820;2023-08-20T11:51:50;7.32;;;3.90;;
9904;SDS011;4991;43.566;27.820;2023-08-20T11:54:16;4.35;;;2.83;;
9904;SDS011;4991;43.566;27.820;2023-08-20T11:56:46;5.70;;;2.88;;
9904;SDS011;4991;43.566;27.820;2023-08-20T11:59:13;6.88;;;2.90;;
9904;SDS011;4991;43.566;27.820;2023-08-20T12:01:41;6.15;;;3.10;;
9904;SDS011;4991;43.566;27.820;2023-08-20T12:04:07;4.65;;;2.75;;
9904;SDS011;4991;43.566;27.820;2023-08-20T12:06:34;6.13;;;2.95;;
9904;SDS011;4991;43.566;27.820;2023-08-20T12:09:02;5.30;;;3.03;;
9904;SDS011;4991;43.566;27.820;2023-08-20T12:11:48;3.03;;;2.67;;
9904;SDS011;4991;43.566;27.820;2023-08-20T12:14:16;7.15;;;2.80;;
9904;SDS011;4991;43.566;27.820;2023-08-20T12:16:43;5.68;;;2.95;;
9904;SDS011;4991;43.566;27.820;2023-08-20T12:19:12;3.00;;;2.55;;
9904;SDS011;4991;43.566;27.820;2023-08-20T12:21:39;4.10;;;3.10;;
9904;SDS011;4991;43.566;27.820;2023-08-20T12:24:06;6.43;;;3.00;;
9904;SDS011;4991;43.566;27.820;2023-08-20T12:26:33;3.05;;;2.75;;
9904;SDS011;4991;43.566;27.820;2023-08-20T12:29:01;4.18;;;2.97;;
9904;SDS011;4991;43.566;27.820;2023-08-20T12:31:29;3.78;;;2.40;;
9904;SDS011;4991;43.566;27.820;2023-08-20T12:33:57;4.30;;;2.72;;
9904;SDS011;4991;43.566;27.820;2023-08-20T12:36:25;5.53;;;2.95;;
9904;SDS011;4991;43.566;27.820;2023-08-20T12:38:53;6.25;;;2.65;;
9904;SDS011;4991;43.566;27.820;2023-08-20T12:41:20;3.47;;;3.13;;
9904;SDS011;4991;43.566;27.820;2023-08-20T12:43:48;7.47;;;2.85;;
9904;SDS011;4991;43.566;27.820;2023-08-20T12:46:16;7.10;;;3.30;;
9904;SDS011;4991;43.566;27.820;2023-08-20T12:48:43;8.70;;;7.25;;
9904;SDS011;4991;43.566;27.820;2023-08-20T12:51:10;5.63;;;4.97;;
9904;SDS011;4991;43.566;27.820;2023-08-20T12:53:40;6.25;;;3.63;;
9904;SDS011;4991;43.566;27.820;2023-08-20T12:56:07;4.03;;;2.88;;
9904;SDS011;4991;43.566;27.820;2023-08-20T12:58:33;5.60;;;3.72;;
9904;SDS011;4991;43.566;27.820;2023-08-20T13:00:59;5.00;;;2.63;;
9904;SDS011;4991;43.566;27.820;2023-08-20T13:03:26;6.13;;;4.10;;
9904;SDS011;4991;43.566;27.820;2023-08-20T13:05:53;4.63;;;2.80;;
9904;SDS011;4991;43.566;27.820;2023-08-20T13:08:22;7.28;;;3.20;;
9904;SDS011;4991;43.566;27.820;2023-08-20T13:10:50;4.30;;;3.15;;
9904;SDS011;4991;43.566;27.820;2023-08-20T13:13:21;3.45;;;2.63;;
9904;SDS011;4991;43.566;27.820;2023-08-20T13:15:50;4.60;;;3.03;;
9904;SDS011;4991;43.566;27.820;2023-08-20T13:18:17;5.07;;;2.90;;
9904;SDS011;4991;43.566;27.820;2023-08-20T13:20:44;7.05;;;2.90;;
9904;SDS011;4991;43.566;27.820;2023-08-20T13:23:10;3.97;;;2.63;;
9904;SDS011;4991;43.566;27.820;2023-08-20T13:25:36;5.00;;;3.00;;
9904;SDS011;4991;43.566;27.820;2023-08-20T13:28:02;5.13;;;4.65;;
9904;SDS011;4991;43.566;27.820;2023-08-20T13:30:28;3.38;;;2.80;;
9904;SDS011;4991;43.566;27.820;2023-08-20T13:32:54;5.25;;;2.70;;
9904;SDS011;4991;43.566;27.820;2023-08-20T13:35:20;4.43;;;2.90;;
9904;SDS011;4991;43.566;27.820;2023-08-20T13:37:46;4.57;;;2.72;;
9904;SDS011;4991;43.566;27.820;2023-08-20T13:40:12;2.90;;;2.53;;
9904;SDS011;4991;43.566;27.820;2023-08-20T13:42:37;9.13;;;2.60;;
9904;SDS011;4991;43.566;27.820;2023-08-20T13:45:03;4.97;;;2.85;;
9904;SDS011;4991;43.566;27.820;2023-08-20T13:47:29;7.57;;;2.90;;
9904;SDS011;4991;43.566;27.820;2023-08-20T13:49:55;4.55;;;2.60;;
9904;SDS011;4991;43.566;27.820;2023-08-20T13:52:20;4.38;;;2.40;;
9904;SDS011;4991;43.566;27.820;2023-08-20T13:54:46;4.85;;;3.13;;
9904;SDS011;4991;43.566;27.820;2023-08-20T13:57:12;6.00;;;2.92;;
9904;SDS011;4991;43.566;27.820;2023-08-20T13:59:37;4.25;;;2.97;;
9904;SDS011;4991;43.566;27.820;2023-08-20T14:02:04;6.32;;;2.80;;
9904;SDS011;4991;43.566;27.820;2023-08-20T14:04:29;6.47;;;2.58;;
9904;SDS011;4991;43.566;27.820;2023-08-20T14:06:55;6.82;;;2.90;;
9904;SDS011;4991;43.566;27.820;2023-08-20T14:09:20;4.72;;;3.05;;
9904;SDS011;4991;43.566;27.820;2023-08-20T14:11:46;3.67;;;2.88;;
9904;SDS011;4991;43.566;27.820;2023-08-20T14:14:12;8.13;;;2.88;;
9904;SDS011;4991;43.566;27.820;2023-08-20T14:16:37;3.85;;;2.80;;
9904;SDS011;4991;43.566;27.820;2023-08-20T14:19:03;4.05;;;3.00;;
9904;SDS011;4991;43.566;27.820;2023-08-20T14:21:29;4.88;;;3.17;;
9904;SDS011;4991;43.566;27.820;2023-08-20T14:23:54;6.38;;;3.28;;
9904;SDS011;4991;43.566;27.820;2023-08-20T14:26:20;7.30;;;3.60;;
9904;SDS011;4991;43.566;27.820;2023-08-20T14:28:46;4.13;;;2.80;;
9904;SDS011;4991;43.566;27.820;2023-08-20T14:31:11;6.35;;;2.90;;
9904;SDS011;4991;43.566;27.820;2023-08-20T14:33:37;6.75;;;3.22;;
9904;SDS011;4991;43.566;27.820;2023-08-20T14:36:03;3.17;;;2.78;;
9904;SDS011;4991;43.566;27.820;2023-08-20T14:38:29;6.25;;;3.25;;
9904;SDS011;4991;43.566;27.820;2023-08-20T14:41:01;4.97;;;3.40;;
9904;SDS011;4991;43.566;27.820;2023-08-20T14:43:31;6.55;;;3.22;;
9904;SDS011;4991;43.566;27.820;2023-08-20T14:46:09;7.35;;;3.10;;
9904;SDS011;4991;43.566;27.820;2023-08-20T14:48:39;6.28;;;2.92;;
9904;SDS011;4991;43.566;27.820;2023-08-20T14:51:13;10.75;;;6.25;;
9904;SDS011;4991;43.566;27.820;2023-08-20T14:53:48;7.60;;;4.28;;
9904;SDS011;4991;43.566;27.820;2023-08-20T14:56:20;7.03;;;3.10;;
9904;SDS011;4991;43.566;27.820;2023-08-20T14:58:50;5.68;;;3.30;;
9904;SDS011;4991;43.566;27.820;2023-08-20T15:01:20;9.35;;;3.55;;
9904;SDS011;4991;43.566;27.820;2023-08-20T15:03:50;6.43;;;3.40;;
9904;SDS011;4991;43.566;27.820;2023-08-20T15:06:16;9.05;;;4.30;;
9904;SDS011;4991;43.566;27.820;2023-08-20T15:08:43;6.82;;;3.45;;
9904;SDS011;4991;43.566;27.820;2023-08-20T15:11:11;6.72;;;3.05;;
9904;SDS011;4991;43.566;27.820;2023-08-20T15:13:40;5.95;;;3.08;;
9904;SDS011;4991;43.566;27.820;2023-08-20T15:16:09;8.63;;;3.40;;